Time;durP1;ratioP1;P1;durP2;ratioP2;P2;SDS_P1;SDS_P2;PMS_P1;PMS_P2;Temp;Humidity;BMP_temperature;BMP_pressure;BME280_temperature;BME280_humidity;BME280_pressure;Samples;Min_cycle;Max_cycle;Signal;HPM_P1;HPM_P2
2023/05/09 00:00:02;;;;;;;10.77;8.37;;;15.60;99.90;;;;;;5027209;28;20204;-82
2023/05/09 00:02:28;;;;;;;9.03;7.80;;;17.20;99.90;;;;;;5027124;28;20173;-81
2023/05/09 00:04:55;;;;;;;9.20;7.87;;;15.80;99.90;;;;;;5027427;28;20165;-82
2023/05/09 00:07:21;;;;;;;9.13;8.23;;;15.60;99.90;;;;;;5027176;28;20178;-81
2023/05/09 00:09:46;;;;;;;13.20;9.23;;;15.60;99.90;;;;;;5026277;28;20522;-82
2023/05/09 00:12:12;;;;;;;11.17;8.43;;;15.60;99.90;;;;;;5025977;28;20185;-82
2023/05/09 00:14:39;;;;;;;10.00;9.00;;;16.00;99.90;;;;;;5026873;28;20195;-82
2023/05/09 00:17:06;;;;;;;11.10;9.07;;;15.50;99.90;;;;;;5025257;28;20173;-81
2023/05/09 00:19:32;;;;;;;11.93;8.40;;;15.60;99.90;;;;;;5028015;28;20197;-82
2023/05/09 00:21:58;;;;;;;9.33;8.00;;;15.50;99.90;;;;;;5027019;28;20173;-82
2023/05/09 00:24:23;;;;;;;10.60;8.67;;;15.90;99.90;;;;;;5027439;28;20180;-82
2023/05/09 00:26:49;;;;;;;10.40;9.30;;;15.80;99.90;;;;;;5027459;28;20161;-81
2023/05/09 00:29:14;;;;;;;10.63;8.90;;;16.40;99.90;;;;;;5028616;28;20306;-82
2023/05/09 00:31:40;;;;;;;10.43;9.07;;;15.50;99.90;;;;;;5028160;28;20177;-82
2023/05/09 00:34:05;;;;;;;14.80;9.50;;;15.50;99.90;;;;;;5027514;28;20192;-82
2023/05/09 00:36:31;;;;;;;11.27;9.40;;;15.30;99.90;;;;;;5028107;28;20173;-82
2023/05/09 00:38:57;;;;;;;11.43;10.23;;;15.50;99.90;;;;;;5027411;28;20213;-82
2023/05/09 00:41:22;;;;;;;11.37;10.17;;;15.40;99.90;;;;;;5027028;28;20173;-81
2023/05/09 00:43:48;;;;;;;10.50;9.40;;;16.30;99.90;;;;;;5028012;28;20542;-82
2023/05/09 00:46:13;;;;;;;10.47;9.37;;;15.40;99.90;;;;;;5027978;28;20214;-81
2023/05/09 00:48:39;;;;;;;12.97;9.60;;;15.40;99.90;;;;;;5027789;28;20213;-82
2023/05/09 00:51:05;;;;;;;10.87;9.63;;;14.70;99.90;;;;;;5026716;28;20177;-82
2023/05/09 00:53:31;;;;;;;11.30;10.20;;;15.40;99.90;;;;;;5035519;28;20213;-82
2023/05/09 00:55:58;;;;;;;13.07;10.57;;;15.10;99.90;;;;;;5047616;28;20204;-81
2023/05/09 00:58:24;;;;;;;13.07;10.53;;;15.40;99.90;;;;;;5047143;28;20192;-82
2023/05/09 01:00:50;;;;;;;11.10;9.63;;;15.40;99.90;;;;;;5045512;28;20224;-81
2023/05/09 01:03:16;;;;;;;12.17;10.63;;;15.50;99.90;;;;;;5045683;28;20192;-82
2023/05/09 01:05:48;;;;;;;12.93;10.90;;;15.70;99.90;;;;;;5045189;28;20180;-82
2023/05/09 01:08:51;;;;;;;13.90;10.40;;;15.30;99.90;;;;;;5046591;28;20239;-81
2023/05/09 01:11:31;;;;;;;12.47;9.93;;;15.30;99.90;;;;;;5046200;28;20168;-82
2023/05/09 01:14:07;;;;;;;11.80;10.57;;;15.30;99.90;;;;;;5045894;28;20203;-82
2023/05/09 01:16:46;;;;;;;11.83;10.40;;;15.60;99.90;;;;;;5045982;28;20179;-81
2023/05/09 01:19:50;;;;;;;12.33;11.00;;;15.30;99.90;;;;;;5046901;28;20313;-82
2023/05/09 01:22:16;;;;;;;12.50;10.63;;;15.30;99.90;;;;;;5047604;28;20176;-82
2023/05/09 01:24:53;;;;;;;11.83;10.63;;;15.60;99.90;;;;;;5049769;28;20184;-82
2023/05/09 01:27:43;;;;;;;13.83;11.20;;;15.30;99.90;;;;;;5049528;28;20197;-81
2023/05/09 01:30:11;;;;;;;13.80;11.33;;;15.30;99.90;;;;;;5050385;28;20157;-82
2023/05/09 01:32:39;;;;;;;14.00;11.27;;;15.50;99.90;;;;;;5050794;28;20168;-82
2023/05/09 01:35:07;;;;;;;13.03;11.30;;;15.40;99.90;;;;;;5049670;28;20183;-82
2023/05/09 01:37:34;;;;;;;12.97;11.67;;;15.30;99.90;;;;;;5049613;28;20187;-82
2023/05/09 01:40:10;;;;;;;14.17;12.43;;;15.30;99.90;;;;;;5048730;28;20763;-82
2023/05/09 01:43:07;;;;;;;12.80;11.17;;;15.30;99.90;;;;;;5050273;28;20160;-82
2023/05/09 01:45:34;;;;;;;13.50;10.90;;;15.30;99.90;;;;;;5051231;28;20237;-82
2023/05/09 01:48:01;;;;;;;15.70;12.00;;;15.40;99.90;;;;;;5049127;28;20208;-81
2023/05/09 01:50:29;;;;;;;14.07;11.87;;;15.60;99.90;;;;;;5050661;28;20172;-82
2023/05/09 01:52:57;;;;;;;18.27;12.10;;;15.40;99.90;;;;;;5049651;28;20176;-82
2023/05/09 01:55:26;;;;;;;15.80;12.67;;;15.40;99.90;;;;;;5048868;28;20707;-82
2023/05/09 01:57:53;;;;;;;14.70;12.93;;;15.40;99.90;;;;;;5049592;28;20263;-82
2023/05/09 02:00:19;;;;;;;16.33;13.40;;;15.40;99.90;;;;;;5049967;28;20176;-82
2023/05/09 02:02:45;;;;;;;13.80;12.30;;;16.70;99.90;;;;;;5049824;28;20184;-81
2023/05/09 02:05:12;;;;;;;16.87;13.57;;;15.80;99.90;;;;;;5050068;28;20181;-82
2023/05/09 02:07:40;;;;;;;16.20;13.37;;;15.90;99.90;;;;;;5049861;28;20188;-82
2023/05/09 02:10:08;;;;;;;16.27;13.40;;;15.90;99.90;;;;;;5050309;28;20183;-82
2023/05/09 02:12:34;;;;;;;14.67;12.60;;;15.40;99.90;;;;;;5048882;28;20196;-82
2023/05/09 02:14:59;;;;;;;17.63;13.30;;;15.40;99.90;;;;;;5049229;28;20261;-81
2023/05/09 02:17:25;;;;;;;17.23;13.77;;;15.50;99.90;;;;;;5050140;28;20172;-82
2023/05/09 02:19:51;;;;;;;16.10;13.43;;;15.50;99.90;;;;;;5049634;28;20192;-82
2023/05/09 02:22:17;;;;;;;15.60;13.87;;;15.80;99.90;;;;;;5049839;28;20176;-82
2023/05/09 02:24:46;;;;;;;16.73;13.63;;;16.00;99.90;;;;;;5049694;28;20196;-81
2023/05/09 02:27:13;;;;;;;15.87;13.77;;;15.50;99.90;;;;;;5049580;28;20195;-81
2023/05/09 02:29:44;;;;;;;17.03;13.80;;;15.50;99.90;;;;;;5049431;28;20192;-82
2023/05/09 02:32:15;;;;;;;15.40;12.67;;;15.50;99.90;;;;;;5049572;28;20165;-82
2023/05/09 02:34:42;;;;;;;17.50;13.47;;;15.60;99.90;;;;;;5048031;28;20194;-81
2023/05/09 02:37:09;;;;;;;17.67;13.43;;;15.80;99.90;;;;;;5049210;28;20237;-81
2023/05/09 02:39:35;;;;;;;16.30;13.60;;;15.50;99.90;;;;;;5048707;28;20207;-81
2023/05/09 02:42:12;;;;;;;18.33;14.80;;;15.50;99.90;;;;;;5048486;28;20176;-82
2023/05/09 02:44:37;;;;;;;18.37;14.77;;;15.50;99.90;;;;;;5047618;28;20179;-82
2023/05/09 02:47:05;;;;;;;15.37;13.77;;;15.50;99.90;;;;;;5048359;28;20176;-81
2023/05/09 02:49:31;;;;;;;19.30;13.30;;;15.50;99.90;;;;;;5047567;28;20222;-81
2023/05/09 02:51:56;;;;;;;18.93;14.97;;;15.60;99.90;;;;;;5047955;28;20184;-81
2023/05/09 02:54:22;;;;;;;17.63;15.03;;;15.60;99.90;;;;;;5049776;28;20176;-81
2023/05/09 02:56:47;;;;;;;19.33;14.63;;;15.10;99.90;;;;;;5049853;28;20180;-81
2023/05/09 02:59:14;;;;;;;18.67;14.87;;;15.90;99.90;;;;;;5049642;28;20200;-82
2023/05/09 03:01:39;;;;;;;22.90;15.57;;;15.60;99.90;;;;;;5049060;28;20187;-83
2023/05/09 03:04:05;;;;;;;19.50;15.70;;;15.60;99.90;;;;;;5048199;28;20180;-82
2023/05/09 03:06:31;;;;;;;20.50;15.80;;;15.60;99.90;;;;;;5047603;28;20203;-82
2023/05/09 03:08:57;;;;;;;22.40;17.27;;;15.90;99.90;;;;;;5047925;28;20298;-82
2023/05/09 03:11:22;;;;;;;28.43;19.33;;;15.60;99.90;;;;;;5049241;28;20201;-82
2023/05/09 03:13:48;;;;;;;27.20;18.73;;;15.60;99.90;;;;;;5048516;28;20220;-81
2023/05/09 03:16:16;;;;;;;27.20;19.13;;;15.40;99.90;;;;;;5047707;28;20255;-81
2023/05/09 03:18:42;;;;;;;28.20;20.53;;;15.60;99.90;;;;;;5048000;28;20277;-81
2023/05/09 03:21:07;;;;;;;30.30;19.43;;;15.20;99.90;;;;;;5047920;28;20640;-81
2023/05/09 03:23:33;;;;;;;35.73;23.83;;;16.20;99.90;;;;;;5048351;28;20169;-82
2023/05/09 03:25:58;;;;;;;40.60;25.60;;;15.60;99.90;;;;;;5048676;28;20244;-81
2023/05/09 03:28:24;;;;;;;38.13;24.67;;;16.00;99.90;;;;;;5048998;28;20216;-81
2023/05/09 03:30:49;;;;;;;40.00;26.63;;;15.70;99.90;;;;;;5048058;28;20172;-82
2023/05/09 03:33:15;;;;;;;40.97;27.30;;;15.60;99.90;;;;;;5048562;28;20240;-82
2023/05/09 03:35:41;;;;;;;44.00;28.27;;;16.40;99.90;;;;;;5047245;28;20187;-81
2023/05/09 03:38:06;;;;;;;40.47;26.93;;;15.70;99.90;;;;;;5047696;28;20692;-83
2023/05/09 03:40:32;;;;;;;40.80;26.67;;;15.90;99.90;;;;;;5048580;28;20192;-81
2023/05/09 03:42:58;;;;;;;46.10;28.70;;;15.30;99.90;;;;;;5047821;28;20628;-82
2023/05/09 03:45:23;;;;;;;49.03;30.13;;;15.60;99.90;;;;;;5048792;28;20250;-81
2023/05/09 03:47:49;;;;;;;53.37;30.60;;;15.70;99.90;;;;;;5047569;28;20200;-82
2023/05/09 03:50:14;;;;;;;51.27;29.70;;;15.70;99.90;;;;;;5048344;28;20176;-81
2023/05/09 03:52:40;;;;;;;48.30;30.30;;;15.70;99.90;;;;;;5046507;28;20176;-82
2023/05/09 03:55:06;;;;;;;51.13;31.37;;;15.70;99.90;;;;;;5047642;28;20226;-81
2023/05/09 03:57:33;;;;;;;46.20;29.17;;;15.70;99.90;;;;;;5047579;28;20176;-81
2023/05/09 03:59:58;;;;;;;44.43;27.23;;;15.90;99.90;;;;;;5048056;28;20199;-81
2023/05/09 04:02:24;;;;;;;46.37;26.93;;;15.60;99.90;;;;;;5047116;28;20180;-81
2023/05/09 04:04:51;;;;;;;49.33;28.30;;;15.70;99.90;;;;;;5047272;28;20179;-81
2023/05/09 04:07:17;;;;;;;52.77;30.73;;;15.70;99.90;;;;;;5048063;28;20253;-81
2023/05/09 04:09:43;;;;;;;52.87;29.93;;;15.20;99.90;;;;;;5047798;28;20188;-82
2023/05/09 04:12:12;;;;;;;41.57;25.83;;;15.60;99.90;;;;;;5046965;28;20206;-82
2023/05/09 04:14:38;;;;;;;40.10;26.70;;;15.70;99.90;;;;;;5045804;28;20171;-82
2023/05/09 04:17:03;;;;;;;44.63;26.90;;;15.70;99.90;;;;;;5047248;28;20249;-81
2023/05/09 04:19:29;;;;;;;43.77;24.33;;;16.70;99.90;;;;;;5047333;28;20257;-81
2023/05/09 04:21:55;;;;;;;40.87;24.60;;;15.70;99.90;;;;;;5047484;28;20172;-82
2023/05/09 04:24:21;;;;;;;39.03;23.70;;;15.60;99.90;;;;;;5046607;28;20256;-81
2023/05/09 04:26:46;;;;;;;37.60;22.50;;;15.60;99.90;;;;;;5046774;28;20248;-81
2023/05/09 04:29:12;;;;;;;35.03;21.97;;;15.60;99.90;;;;;;5047143;28;20701;-81
2023/05/09 04:31:37;;;;;;;33.57;23.17;;;15.50;99.90;;;;;;5045505;28;20184;-82
2023/05/09 04:34:03;;;;;;;32.47;21.10;;;15.50;99.90;;;;;;5046882;28;20203;-81
2023/05/09 04:36:30;;;;;;;29.80;21.07;;;15.60;99.90;;;;;;5047199;28;20251;-81
2023/05/09 04:38:56;;;;;;;31.20;20.93;;;15.40;99.90;;;;;;5046461;28;20184;-81
2023/05/09 04:41:21;;;;;;;29.23;21.10;;;15.80;99.90;;;;;;5046263;28;20214;-81
2023/05/09 04:43:47;;;;;;;35.40;22.67;;;15.50;99.90;;;;;;5045211;28;20205;-80
2023/05/09 04:46:12;;;;;;;32.73;21.60;;;16.10;99.90;;;;;;5046671;28;20192;-81
2023/05/09 04:48:38;;;;;;;31.63;20.57;;;15.60;99.90;;;;;;5044366;28;20216;-81
2023/05/09 04:51:04;;;;;;;29.47;20.13;;;15.60;99.90;;;;;;5043597;28;20187;-81
2023/05/09 04:53:29;;;;;;;28.97;21.97;;;15.50;99.90;;;;;;5040602;28;20177;-81
2023/05/09 04:55:55;;;;;;;31.33;20.63;;;15.60;99.90;;;;;;5040930;28;20176;-80
2023/05/09 04:58:20;;;;;;;32.33;20.73;;;15.60;99.90;;;;;;5039689;28;20697;-81
2023/05/09 05:00:46;;;;;;;31.57;21.30;;;15.70;99.90;;;;;;5032509;28;20180;-79
2023/05/09 05:03:36;;;;;;;32.37;20.93;;;15.60;99.90;;;;;;5032329;28;20180;-80
2023/05/09 05:06:01;;;;;;;36.23;22.33;;;15.60;99.90;;;;;;5034611;28;20161;-80
2023/05/09 05:08:27;;;;;;;34.43;21.97;;;15.90;99.90;;;;;;5032338;28;20238;-80
2023/05/09 05:10:53;;;;;;;38.37;22.77;;;15.60;99.90;;;;;;5031160;28;20177;-80
2023/05/09 05:13:20;;;;;;;35.87;21.80;;;15.60;99.90;;;;;;5031290;28;20250;-81
2023/05/09 05:15:45;;;;;;;37.43;23.07;;;15.60;99.90;;;;;;5031918;28;20178;-79
2023/05/09 05:18:11;;;;;;;30.93;21.30;;;15.60;99.90;;;;;;5032379;28;20687;-79
2023/05/09 05:20:39;;;;;;;34.80;22.50;;;15.70;99.90;;;;;;5031046;28;20200;-79
2023/05/09 05:23:05;;;;;;;39.20;22.57;;;15.60;99.90;;;;;;5031313;28;20180;-80
2023/05/09 05:25:30;;;;;;;39.50;23.37;;;15.60;99.90;;;;;;5033027;28;20552;-79
2023/05/09 05:27:56;;;;;;;42.43;23.30;;;15.70;99.90;;;;;;5031401;28;20232;-78
2023/05/09 05:30:21;;;;;;;42.97;23.73;;;15.70;99.90;;;;;;5031048;28;20176;-79
2023/05/09 05:32:47;;;;;;;46.93;27.03;;;15.70;99.90;;;;;;5031109;28;20193;-79
2023/05/09 05:35:13;;;;;;;45.67;24.20;;;15.70;99.90;;;;;;5032255;28;20169;-79
2023/05/09 05:37:39;;;;;;;49.27;26.27;;;15.70;99.90;;;;;;5031068;28;20180;-79
2023/05/09 05:40:05;;;;;;;53.20;27.30;;;15.80;99.90;;;;;;5030879;28;20223;-79
2023/05/09 05:42:31;;;;;;;61.13;28.73;;;15.80;99.90;;;;;;5030440;28;20237;-79
2023/05/09 05:45:00;;;;;;;54.10;28.07;;;15.90;99.90;;;;;;5030133;28;20215;-79
2023/05/09 05:47:25;;;;;;;46.67;27.23;;;15.90;99.90;;;;;;5029551;28;20180;-79
2023/05/09 05:49:51;;;;;;;51.53;28.00;;;16.10;99.90;;;;;;5031839;28;20199;-79
2023/05/09 05:52:16;;;;;;;53.77;26.60;;;16.00;99.90;;;;;;5030288;28;20282;-78
2023/05/09 05:54:42;;;;;;;52.33;27.47;;;16.00;99.90;;;;;;5030939;28;20692;-79
2023/05/09 05:57:07;;;;;;;47.00;25.20;;;16.10;99.90;;;;;;5030997;28;20221;-78
2023/05/09 05:59:33;;;;;;;55.07;27.07;;;16.20;99.90;;;;;;5029593;28;20295;-78
2023/05/09 06:01:58;;;;;;;52.57;26.73;;;16.20;99.90;;;;;;5032146;28;20169;-78
2023/05/09 06:04:24;;;;;;;48.47;26.83;;;16.30;99.90;;;;;;5032290;28;20176;-78
2023/05/09 06:06:49;;;;;;;47.83;25.07;;;16.30;99.90;;;;;;5031652;28;20180;-78
2023/05/09 06:09:15;;;;;;;46.17;24.67;;;16.40;99.90;;;;;;5030972;28;20280;-78
2023/05/09 06:11:40;;;;;;;44.30;24.13;;;16.40;99.90;;;;;;5033154;28;20176;-79
2023/05/09 06:14:06;;;;;;;35.27;20.97;;;16.50;99.90;;;;;;5035213;28;20249;-78
2023/05/09 06:16:32;;;;;;;30.47;20.77;;;16.50;99.90;;;;;;5035230;28;20543;-78
2023/05/09 06:18:57;;;;;;;30.80;20.83;;;16.60;99.90;;;;;;5035141;28;20200;-79
2023/05/09 06:21:23;;;;;;;36.67;22.30;;;16.60;99.90;;;;;;5034704;28;20546;-78
2023/05/09 06:23:48;;;;;;;28.00;21.83;;;16.60;99.90;;;;;;5033776;28;20279;-78
2023/05/09 06:26:14;;;;;;;29.97;21.43;;;16.60;99.90;;;;;;5033669;28;20191;-78
2023/05/09 06:28:40;;;;;;;29.57;20.13;;;16.60;99.90;;;;;;5033245;28;20586;-79
2023/05/09 06:31:06;;;;;;;33.17;20.97;;;16.70;99.90;;;;;;5033339;28;20707;-78
2023/05/09 06:33:31;;;;;;;26.47;20.37;;;16.70;99.90;;;;;;5033151;28;20198;-78
2023/05/09 06:35:59;;;;;;;25.00;18.27;;;16.80;99.90;;;;;;5033791;28;20191;-78
2023/05/09 06:38:24;;;;;;;22.63;17.80;;;16.80;99.90;;;;;;5035221;28;20192;-79
2023/05/09 06:40:50;;;;;;;23.30;16.10;;;16.90;99.90;;;;;;5034175;28;20184;-78
2023/05/09 06:43:15;;;;;;;22.50;17.30;;;16.90;99.90;;;;;;5033347;28;20357;-78
2023/05/09 06:45:41;;;;;;;18.20;16.30;;;16.90;99.90;;;;;;5034323;28;20199;-78
2023/05/09 06:48:06;;;;;;;22.77;16.23;;;17.00;99.90;;;;;;5034327;28;20235;-80
2023/05/09 06:50:32;;;;;;;20.23;15.83;;;17.00;99.90;;;;;;5032632;28;20694;-78
2023/05/09 06:52:57;;;;;;;19.17;14.67;;;17.00;99.90;;;;;;5034731;28;20176;-78
2023/05/09 06:55:23;;;;;;;18.07;15.20;;;17.10;99.90;;;;;;5033323;28;20176;-79
2023/05/09 06:57:48;;;;;;;17.70;15.27;;;17.10;99.90;;;;;;5032865;28;20180;-80
2023/05/09 07:00:15;;;;;;;19.83;15.73;;;17.10;99.90;;;;;;5032385;28;20272;-80
2023/05/09 07:02:40;;;;;;;20.60;16.53;;;17.20;99.90;;;;;;5032107;28;20180;-80
2023/05/09 07:05:08;;;;;;;19.57;16.37;;;17.20;99.90;;;;;;5033726;28;20179;-80
2023/05/09 07:07:33;;;;;;;20.00;15.67;;;17.30;99.90;;;;;;5032894;28;20742;-80
2023/05/09 07:10:00;;;;;;;18.20;15.07;;;17.40;99.90;;;;;;5034796;28;20232;-81
2023/05/09 07:12:25;;;;;;;18.77;16.20;;;17.40;99.90;;;;;;5042634;28;20244;-82
2023/05/09 07:14:51;;;;;;;16.47;14.77;;;17.50;99.90;;;;;;5041603;28;20181;-81
2023/05/09 07:17:16;;;;;;;16.13;14.43;;;17.60;99.90;;;;;;5041504;28;20256;-80
2023/05/09 07:19:42;;;;;;;18.47;14.37;;;17.70;99.90;;;;;;5040998;28;20216;-81
2023/05/09 07:22:07;;;;;;;17.03;13.57;;;17.80;99.90;;;;;;5041512;28;20589;-81
2023/05/09 07:24:33;;;;;;;14.30;12.80;;;17.90;99.90;;;;;;5041645;28;20659;-81
2023/05/09 07:27:02;;;;;;;16.87;13.20;;;17.90;99.90;;;;;;5042940;28;20176;-81
2023/05/09 07:29:28;;;;;;;19.00;14.53;;;18.00;99.90;;;;;;5041596;28;20243;-82
2023/05/09 07:31:53;;;;;;;15.27;12.27;;;18.00;99.90;;;;;;5043439;28;20173;-81
2023/05/09 07:34:19;;;;;;;14.87;12.93;;;18.00;99.90;;;;;;5043897;28;20168;-81
2023/05/09 07:36:45;;;;;;;17.17;12.67;;;18.00;99.90;;;;;;5041345;28;20176;-81
2023/05/09 07:39:10;;;;;;;15.67;13.60;;;18.10;99.90;;;;;;5041276;28;20218;-81
2023/05/09 07:41:36;;;;;;;14.87;13.33;;;18.00;99.90;;;;;;5042150;28;20176;-81
2023/05/09 07:44:01;;;;;;;15.33;13.27;;;18.00;99.90;;;;;;5043921;28;20184;-81
2023/05/09 07:46:27;;;;;;;15.57;12.70;;;18.00;99.90;;;;;;5043772;28;20177;-81
2023/05/09 07:48:52;;;;;;;17.73;13.73;;;18.10;99.90;;;;;;5042185;28;20298;-81
2023/05/09 07:51:18;;;;;;;16.33;12.47;;;18.10;99.90;;;;;;5043423;28;20192;-81
2023/05/09 07:53:43;;;;;;;15.30;12.37;;;18.10;99.90;;;;;;5040998;28;20176;-81
2023/05/09 07:56:09;;;;;;;14.73;13.13;;;18.20;99.90;;;;;;5043839;28;20187;-81
2023/05/09 07:58:34;;;;;;;15.37;12.50;;;18.20;99.90;;;;;;5043349;28;20572;-81
2023/05/09 08:01:00;;;;;;;16.97;12.90;;;18.10;99.90;;;;;;5044417;28;20195;-81
2023/05/09 08:03:25;;;;;;;14.83;12.67;;;18.20;99.90;;;;;;5040610;28;20180;-81
2023/05/09 08:05:55;;;;;;;12.00;10.60;;;18.20;99.90;;;;;;5041630;28;20172;-81
2023/05/09 08:08:21;;;;;;;13.60;11.07;;;18.20;99.90;;;;;;5040867;28;20212;-81
2023/05/09 08:10:47;;;;;;;18.77;11.47;;;18.30;99.90;;;;;;5039922;28;20229;-81
2023/05/09 08:13:12;;;;;;;11.63;10.40;;;18.40;99.90;;;;;;5041823;28;20682;-81
2023/05/09 08:15:38;;;;;;;13.03;10.03;;;18.30;99.90;;;;;;5041779;28;20169;-82
2023/05/09 08:18:03;;;;;;;10.77;9.67;;;18.50;99.90;;;;;;5041718;28;20181;-81
2023/05/09 08:20:30;;;;;;;13.23;9.27;;;18.40;1.00;;;;;;5041791;28;20187;-81
2023/05/09 08:22:56;;;;;;;9.73;8.47;;;18.50;1.00;;;;;;5040606;28;20172;-82
2023/05/09 08:25:21;;;;;;;14.97;9.83;;;18.40;1.00;;;;;;5039873;28;20193;-81
2023/05/09 08:27:47;;;;;;;11.73;9.50;;;18.60;1.00;;;;;;5039349;28;20256;-80
2023/05/09 08:30:13;;;;;;;11.77;9.30;;;18.70;1.00;;;;;;5041558;28;20183;-81
2023/05/09 08:32:38;;;;;;;9.90;8.90;;;18.80;1.00;;;;;;5039931;28;20188;-81
2023/05/09 08:35:05;;;;;;;9.07;8.03;;;18.80;1.00;;;;;;5040208;28;20256;-80
2023/05/09 08:37:31;;;;;;;9.93;8.27;;;18.90;1.00;;;;;;5040276;28;20184;-81
2023/05/09 08:39:56;;;;;;;8.93;7.47;;;18.90;1.00;;;;;;5041705;28;20272;-81
2023/05/09 08:42:23;;;;;;;8.77;7.23;;;18.90;99.90;;;;;;5040136;28;20168;-81
2023/05/09 08:44:48;;;;;;;9.57;6.77;;;19.20;99.90;;;;;;5038003;28;20237;-81
2023/05/09 08:47:14;;;;;;;12.60;6.93;;;19.00;99.90;;;;;;5037694;28;20177;-82
2023/05/09 08:49:40;;;;;;;10.57;6.80;;;18.90;99.90;;;;;;5038418;28;20222;-81
2023/05/09 08:52:06;;;;;;;6.97;6.27;;;18.90;1.00;;;;;;5041084;28;20169;-81
2023/05/09 08:54:32;;;;;;;6.93;5.60;;;18.90;1.00;;;;;;5039062;28;20183;-81
2023/05/09 08:57:00;;;;;;;7.50;5.93;;;19.00;1.00;;;;;;5038973;28;20203;-81
2023/05/09 08:59:26;;;;;;;5.40;4.90;;;19.00;92.90;;;;;;5039934;28;20188;-82
2023/05/09 09:01:52;;;;;;;7.53;4.90;;;19.10;1.00;;;;;;5040579;28;20639;-81
2023/05/09 09:04:18;;;;;;;5.20;4.50;;;19.10;1.00;;;;;;5040388;28;20173;-81
2023/05/09 09:06:45;;;;;;;6.53;5.13;;;19.20;1.00;;;;;;5039297;28;20184;-82
2023/05/09 09:09:11;;;;;;;5.90;4.37;;;19.20;58.00;;;;;;5038667;28;20258;-82
2023/05/09 09:11:39;;;;;;;6.93;4.70;;;19.30;99.90;;;;;;5040316;28;20240;-82
2023/05/09 09:14:14;;;;;;;9.07;5.30;;;19.40;99.90;;;;;;5039068;28;20184;-82
2023/05/09 09:16:42;;;;;;;8.77;5.13;;;19.40;1.00;;;;;;5037677;28;20289;-81
2023/05/09 09:19:13;;;;;;;6.70;5.83;;;19.60;99.90;;;;;;5038255;28;20211;-80
2023/05/09 09:21:43;;;;;;;7.13;5.37;;;19.70;1.00;;;;;;5039925;28;20177;-81
2023/05/09 09:24:12;;;;;;;5.07;4.17;;;19.80;99.90;;;;;;5038125;28;20195;-81
2023/05/09 09:26:47;;;;;;;6.13;4.33;;;19.90;2.80;;;;;;5039520;28;20602;-82
2023/05/09 09:29:12;;;;;;;6.77;4.30;;;19.90;99.90;;;;;;5039174;28;20211;-82
2023/05/09 09:31:38;;;;;;;4.97;3.93;;;19.90;99.90;;;;;;5038798;28;20255;-81
2023/05/09 09:34:04;;;;;;;6.87;3.97;;;19.90;99.90;;;;;;5039929;28;20172;-81
2023/05/09 09:36:35;;;;;;;5.83;3.77;;;19.90;1.00;;;;;;5037294;28;20176;-81
2023/05/09 09:39:03;;;;;;;5.90;4.20;;;19.80;13.20;;;;;;5038388;28;20577;-81
2023/05/09 09:41:33;;;;;;;5.73;3.67;;;19.90;1.00;;;;;;5037835;28;20617;-81
2023/05/09 09:44:09;;;;;;;5.23;3.40;;;20.00;1.00;;;;;;5039492;28;20172;-81
2023/05/09 09:46:51;;;;;;;5.73;3.20;;;20.00;1.00;;;;;;5042055;28;20165;-82
2023/05/09 09:49:22;;;;;;;4.70;2.97;;;20.10;38.50;;;;;;5043528;28;20208;-81
2023/05/09 09:51:53;;;;;;;6.60;2.63;;;20.10;99.90;;;;;;5039272;28;20176;-82
2023/05/09 09:54:19;;;;;;;3.93;2.77;;;20.20;99.90;;;;;;5042135;28;20169;-81
2023/05/09 09:56:46;;;;;;;5.23;2.30;;;20.30;1.00;;;;;;5040954;28;20289;-82
2023/05/09 09:59:14;;;;;;;4.43;3.27;;;20.50;1.00;;;;;;5042562;28;20199;-81
2023/05/09 10:02:00;;;;;;;5.30;2.80;;;20.50;1.00;;;;;;5040486;28;20347;-82
2023/05/09 10:04:31;;;;;;;4.40;2.77;;;20.50;99.90;;;;;;5041937;28;20172;-81
2023/05/09 10:07:03;;;;;;;3.20;2.50;;;20.60;1.00;;;;;;5041905;28;20169;-81
2023/05/09 10:09:29;;;;;;;9.40;2.70;;;20.60;99.90;;;;;;5039873;28;20244;-82
2023/05/09 10:11:55;;;;;;;5.67;3.03;;;20.60;1.00;;;;;;5042189;28;20184;-82
2023/05/09 10:14:23;;;;;;;4.33;2.77;;;20.60;99.90;;;;;;5041891;28;20316;-81
2023/05/09 10:16:51;;;;;;;5.17;2.57;;;20.50;99.90;;;;;;5041964;28;20175;-81
2023/05/09 10:19:19;;;;;;;2.67;2.27;;;20.60;99.90;;;;;;5041079;28;20246;-81
2023/05/09 10:21:54;;;;;;;3.00;2.70;;;20.60;99.90;;;;;;5040324;28;20218;-81
2023/05/09 10:24:38;;;;;;;5.50;3.00;;;20.60;1.00;;;;;;5042103;28;20194;-81
2023/05/09 10:27:10;;;;;;;2.93;2.57;;;20.60;1.00;;;;;;5043390;28;20165;-82
2023/05/09 10:29:40;;;;;;;2.93;2.23;;;20.70;1.00;;;;;;5042490;28;20246;-81
2023/05/09 10:32:15;;;;;;;3.03;2.00;;;20.60;99.90;;;;;;5042647;28;20216;-81
2023/05/09 10:34:45;;;;;;;4.10;2.50;;;20.70;1.00;;;;;;5042441;28;20176;-81
2023/05/09 10:37:12;;;;;;;5.30;2.10;;;20.70;99.90;;;;;;5041667;28;20188;-81
2023/05/09 10:39:39;;;;;;;3.00;2.33;;;20.80;75.70;;;;;;5039989;28;20193;-81
2023/05/09 10:42:06;;;;;;;4.80;2.50;;;20.80;1.00;;;;;;5040858;28;20177;-80
2023/05/09 10:44:32;;;;;;;3.43;2.27;;;20.80;1.00;;;;;;5039392;28;20189;-79
2023/05/09 10:46:59;;;;;;;2.80;2.10;;;20.80;71.40;;;;;;5040498;28;20582;-81
2023/05/09 10:49:25;;;;;;;3.47;2.20;;;20.90;1.00;;;;;;5037979;28;20709;-81
2023/05/09 10:51:50;;;;;;;2.97;2.10;;;20.90;1.00;;;;;;5040752;28;20176;-80
2023/05/09 10:54:27;;;;;;;2.30;2.10;;;21.10;99.90;;;;;;5040669;28;20184;-81
2023/05/09 10:56:54;;;;;;;3.37;2.03;;;21.10;99.90;;;;;;5037510;28;20248;-81
2023/05/09 10:59:38;;;;;;;3.90;2.30;;;21.20;99.90;;;;;;5037846;28;20256;-83
2023/05/09 11:02:05;;;;;;;7.00;2.30;;;21.30;1.00;;;;;;5038177;28;20206;-82
2023/05/09 11:04:31;;;;;;;2.27;2.00;;;21.20;99.90;;;;;;5040964;28;20256;-80
2023/05/09 11:06:58;;;;;;;3.03;2.07;;;21.10;99.90;;;;;;5040826;28;20184;-81
2023/05/09 11:09:33;;;;;;;4.13;2.17;;;21.10;99.90;;;;;;5038724;28;20204;-80
2023/05/09 11:12:06;;;;;;;3.50;2.03;;;21.00;99.90;;;;;;5037019;28;20183;-80
2023/05/09 11:14:32;;;;;;;3.07;2.50;;;21.10;99.90;;;;;;5038095;28;20213;-81
2023/05/09 11:17:00;;;;;;;2.40;2.20;;;21.10;1.00;;;;;;5038439;28;20190;-81
2023/05/09 11:19:44;;;;;;;2.60;2.23;;;21.20;1.00;;;;;;5039002;28;20224;-80
2023/05/09 11:22:21;;;;;;;3.10;2.20;;;21.10;11.80;;;;;;5039525;28;20176;-82
2023/05/09 11:24:48;;;;;;;2.97;2.10;;;21.30;58.20;;;;;;5040540;28;20226;-81
2023/05/09 11:27:25;;;;;;;3.03;2.13;;;21.30;99.90;;;;;;5039018;28;20207;-81
2023/05/09 11:29:53;;;;;;;3.23;2.27;;;21.40;99.90;;;;;;5039339;28;20219;-81
2023/05/09 11:32:20;;;;;;;4.93;2.50;;;21.50;99.90;;;;;;5039773;28;20187;-81
2023/05/09 11:34:46;;;;;;;2.57;2.30;;;21.50;99.90;;;;;;5039258;28;20176;-81
2023/05/09 11:37:14;;;;;;;3.13;2.63;;;21.60;99.90;;;;;;5040674;28;20294;-81
2023/05/09 11:40:01;;;;;;;5.23;2.57;;;21.80;1.00;;;;;;5037151;28;20687;-81
2023/05/09 11:42:28;;;;;;;3.10;2.70;;;21.80;99.90;;;;;;5039089;28;20176;-81
2023/05/09 11:44:56;;;;;;;2.77;2.33;;;21.70;1.00;;;;;;5041471;28;20621;-81
2023/05/09 11:47:21;;;;;;;3.43;2.33;;;22.00;1.00;;;;;;5036557;28;20220;-81
2023/05/09 11:49:50;;;;;;;4.50;2.40;;;21.90;1.00;;;;;;5039309;28;20219;-82
2023/05/09 11:52:18;;;;;;;2.80;2.50;;;21.90;80.60;;;;;;5039883;28;20195;-82
2023/05/09 11:54:43;;;;;;;4.30;1.93;;;22.20;99.90;;;;;;5040417;28;20177;-82
2023/05/09 11:57:15;;;;;;;2.93;2.50;;;22.10;1.00;;;;;;5039438;28;20243;-82
2023/05/09 11:59:42;;;;;;;3.90;2.00;;;22.00;1.00;;;;;;5038771;28;20226;-82
2023/05/09 12:02:07;;;;;;;2.30;1.97;;;22.20;81.40;;;;;;5038179;28;20177;-82
2023/05/09 12:04:34;;;;;;;3.73;2.40;;;22.40;99.90;;;;;;5040476;28;20267;-82
2023/05/09 12:07:00;;;;;;;2.40;2.00;;;22.30;1.00;;;;;;5038241;28;20616;-82
2023/05/09 12:09:36;;;;;;;2.60;1.87;;;22.50;1.00;;;;;;5038878;28;20211;-82
2023/05/09 12:12:09;;;;;;;4.27;2.07;;;22.40;1.00;;;;;;5039397;28;20240;-82
2023/05/09 12:14:35;;;;;;;3.47;2.10;;;22.50;6.80;;;;;;5039411;28;20173;-82
2023/05/09 12:17:01;;;;;;;3.93;1.93;;;22.40;1.00;;;;;;5040815;28;20172;-82
2023/05/09 12:19:27;;;;;;;3.37;1.70;;;22.40;1.00;;;;;;5040938;28;20188;-82
2023/05/09 12:22:05;;;;;;;1.57;1.30;;;22.40;1.00;;;;;;5039561;28;20187;-83
2023/05/09 12:24:33;;;;;;;3.43;1.40;;;22.20;99.90;;;;;;5040324;28;20160;-84
2023/05/09 12:26:59;;;;;;;2.43;1.53;;;22.20;99.90;;;;;;5039646;28;20183;-82
2023/05/09 12:29:25;;;;;;;3.37;1.63;;;22.40;99.90;;;;;;5039502;28;20200;-83
2023/05/09 12:31:52;;;;;;;1.93;1.50;;;22.20;1.00;;;;;;5037121;28;20213;-83
2023/05/09 12:34:18;;;;;;;3.13;2.00;;;22.20;1.00;;;;;;5037041;28;20462;-83
2023/05/09 12:36:50;;;;;;;3.40;1.70;;;22.30;1.00;;;;;;5038720;28;20284;-83